createdAt,value
2022-12-31T00:01:18.074Z,10.70
2022-12-31T00:03:48.031Z,6.20
2022-12-31T00:06:18.967Z,8.65
2022-12-31T00:08:48.177Z,56.83
2022-12-31T00:11:16.638Z,1999.90
2022-12-31T00:13:46.794Z,1999.90
2022-12-31T00:18:47.810Z,1999.90
2022-12-31T00:21:17.070Z,1999.90
2022-12-31T00:23:45.485Z,1999.90
2022-12-31T00:26:17.510Z,1999.90
2022-12-31T00:28:46.712Z,1999.90
2022-12-31T00:31:17.113Z,1999.90
2022-12-31T00:33:47.494Z,1999.90
2022-12-31T00:36:19.406Z,1999.90
2022-12-31T00:38:49.776Z,1999.90
2022-12-31T00:41:19.168Z,1013.50
2022-12-31T00:43:48.107Z,1999.90
2022-12-31T00:46:17.014Z,1999.90
2022-12-31T00:48:48.257Z,1999.90
2022-12-31T00:51:19.137Z,1999.90
2022-12-31T00:53:47.417Z,1999.90
2022-12-31T00:56:19.699Z,1999.90
2022-12-31T00:58:48.513Z,1999.90
2022-12-31T01:01:19.049Z,1999.90
2022-12-31T01:03:51.159Z,1999.90
2022-12-31T01:06:20.466Z,1999.90
2022-12-31T01:08:50.880Z,1999.90
2022-12-31T01:11:23.342Z,1999.90
2022-12-31T01:13:54.166Z,1999.90
2022-12-31T01:16:23.811Z,1999.90
2022-12-31T01:18:54.228Z,1999.90
2022-12-31T01:21:25.528Z,1999.90
2022-12-31T01:23:53.720Z,1999.90
2022-12-31T01:26:22.559Z,1999.90
2022-12-31T01:28:51.023Z,1999.90
2022-12-31T01:31:21.625Z,1999.90
2022-12-31T01:33:51.721Z,1999.90
2022-12-31T01:36:26.327Z,1999.90
2022-12-31T01:38:55.114Z,1999.90
2022-12-31T01:41:25.969Z,1999.90
2022-12-31T01:43:56.446Z,1999.90
2022-12-31T01:46:37.130Z,1999.90
2022-12-31T01:49:12.274Z,1999.90
2022-12-31T01:51:45.253Z,1999.90
2022-12-31T01:54:16.531Z,1999.90
2022-12-31T01:56:46.872Z,1999.90
2022-12-31T01:59:18.409Z,1999.90
2022-12-31T02:01:48.940Z,1999.90
2022-12-31T02:04:17.965Z,1999.90
2022-12-31T02:06:52.731Z,1999.90
2022-12-31T02:09:21.455Z,1999.90
2022-12-31T02:11:49.736Z,1999.90
2022-12-31T02:14:20.715Z,1999.90
2022-12-31T02:16:57.654Z,1999.90
2022-12-31T02:20:03.339Z,1534.68
2022-12-31T02:23:01.041Z,1999.90
2022-12-31T02:25:45.511Z,161.15
2022-12-31T02:28:29.821Z,1999.90
2022-12-31T02:31:04.481Z,1999.90
2022-12-31T02:33:38.546Z,1999.90
2022-12-31T02:36:11.693Z,1999.90
2022-12-31T02:38:43.995Z,1999.90
2022-12-31T02:41:34.121Z,1999.90
2022-12-31T02:44:02.394Z,1999.90
2022-12-31T02:46:44.282Z,1999.90
2022-12-31T02:49:22.856Z,1999.90
2022-12-31T02:51:58.837Z,1999.90
2022-12-31T02:54:37.555Z,1999.90
2022-12-31T02:57:12.257Z,1999.90
2022-12-31T03:00:07.440Z,1999.90
2022-12-31T03:02:43.430Z,1999.90
2022-12-31T03:05:13.522Z,1999.90
2022-12-31T03:07:43.308Z,1999.90
2022-12-31T03:10:12.023Z,1999.90
2022-12-31T03:12:47.556Z,1999.90
2022-12-31T03:15:21.461Z,1999.90
2022-12-31T03:17:57.344Z,1999.90
2022-12-31T03:20:45.732Z,1999.90
2022-12-31T03:23:17.183Z,1999.90
2022-12-31T03:25:44.382Z,1999.90
2022-12-31T03:28:14.727Z,1999.90
2022-12-31T03:30:45.685Z,1999.90
2022-12-31T03:33:15.900Z,1999.90
2022-12-31T03:38:13.084Z,1999.90
2022-12-31T03:40:42.761Z,1999.90
2022-12-31T03:43:11.296Z,1999.90
2022-12-31T03:45:41.294Z,1999.90
2022-12-31T03:48:11.029Z,1999.90
2022-12-31T03:50:40.887Z,1999.90
2022-12-31T03:55:37.465Z,1999.90
2022-12-31T03:58:05.730Z,1999.90
2022-12-31T04:00:33.857Z,1999.90
2022-12-31T04:03:02.183Z,1999.90
2022-12-31T04:05:32.417Z,1999.90
2022-12-31T04:10:31.593Z,1999.90
2022-12-31T04:13:00.623Z,1999.90
2022-12-31T04:15:28.880Z,1999.90
2022-12-31T04:17:57.074Z,1999.90
2022-12-31T04:20:25.248Z,1999.90
2022-12-31T04:22:53.620Z,1999.90
2022-12-31T04:25:23.265Z,1999.90
2022-12-31T04:27:51.677Z,1999.90
2022-12-31T04:30:20.319Z,1999.90
2022-12-31T04:32:48.624Z,1999.90
2022-12-31T04:35:18.075Z,1999.90
2022-12-31T04:37:47.373Z,1999.90
2022-12-31T04:40:15.583Z,1999.90
2022-12-31T04:42:45.162Z,23.55
2022-12-31T04:45:13.537Z,1999.90
2022-12-31T04:47:41.939Z,1999.90
2022-12-31T04:50:10.502Z,1999.90
2022-12-31T04:52:42.673Z,1999.90
2022-12-31T04:55:12.049Z,1999.90
2022-12-31T04:57:40.533Z,1999.90
2022-12-31T05:00:11.648Z,1999.90
2022-12-31T05:02:40.070Z,1999.90
2022-12-31T05:05:09.166Z,1999.90
2022-12-31T05:07:37.237Z,1999.90
2022-12-31T05:10:06.386Z,1999.90
2022-12-31T05:12:34.724Z,1999.90
2022-12-31T05:15:03.032Z,1999.90
2022-12-31T05:17:32.822Z,1999.90
2022-12-31T05:20:01.041Z,519.00
2022-12-31T05:22:32.109Z,22.65
2022-12-31T05:25:01.761Z,31.90
2022-12-31T05:27:31.685Z,1507.68
2022-12-31T05:30:00.372Z,42.63
2022-12-31T05:32:28.774Z,1999.90
2022-12-31T05:34:59.833Z,37.40
2022-12-31T05:37:29.596Z,48.63
2022-12-31T05:39:58.442Z,18.63
2022-12-31T05:42:27.147Z,40.75
2022-12-31T05:44:55.500Z,1999.90
2022-12-31T05:47:23.907Z,1999.90
2022-12-31T05:49:52.063Z,1999.90
2022-12-31T05:52:21.870Z,1999.90
2022-12-31T05:54:50.155Z,1999.90
2022-12-31T05:57:18.476Z,1999.90
2022-12-31T05:59:46.749Z,21.17
2022-12-31T06:02:14.864Z,1999.90
2022-12-31T06:04:43.557Z,65.18
2022-12-31T06:07:11.673Z,45.17
2022-12-31T06:09:41.765Z,31.88
2022-12-31T06:12:10.763Z,34.80
2022-12-31T06:14:45.252Z,39.15
2022-12-31T06:17:14.194Z,45.97
2022-12-31T06:19:42.329Z,82.43
2022-12-31T06:22:10.449Z,209.13
2022-12-31T06:24:38.628Z,183.18
2022-12-31T06:27:08.258Z,1999.90
2022-12-31T06:29:36.582Z,1999.90
2022-12-31T06:32:06.250Z,1999.90
2022-12-31T06:34:34.741Z,1999.90
2022-12-31T06:37:03.021Z,1999.90
2022-12-31T06:39:31.538Z,1999.90
2022-12-31T06:42:03.012Z,1999.90
2022-12-31T06:44:32.513Z,1999.90
2022-12-31T06:47:01.180Z,1999.90
2022-12-31T06:49:29.529Z,1999.90
2022-12-31T06:51:57.775Z,1999.90
2022-12-31T06:54:26.061Z,1999.90
2022-12-31T06:56:54.703Z,1999.90
2022-12-31T06:59:26.646Z,1999.90
2022-12-31T07:02:13.831Z,1999.90
2022-12-31T07:05:20.750Z,1999.90
2022-12-31T07:07:59.437Z,1999.90
2022-12-31T07:10:41.081Z,1999.90
2022-12-31T07:13:41.458Z,1999.90
2022-12-31T07:16:23.638Z,1999.90
2022-12-31T07:19:03.228Z,1999.90
2022-12-31T07:21:35.194Z,1999.90
2022-12-31T07:24:04.218Z,1999.90
2022-12-31T07:26:52.576Z,1999.90
2022-12-31T07:29:30.728Z,1999.90
2022-12-31T07:32:12.688Z,1999.90
2022-12-31T07:34:53.200Z,1999.90
2022-12-31T07:37:32.679Z,1999.90
2022-12-31T07:40:09.786Z,1999.90
2022-12-31T07:42:42.300Z,1999.90
2022-12-31T07:45:19.441Z,1999.90
2022-12-31T07:47:48.059Z,1999.90
2022-12-31T07:50:19.668Z,1999.90
2022-12-31T07:52:48.778Z,1999.90
2022-12-31T07:55:17.353Z,1999.90
2022-12-31T07:57:54.007Z,1999.90
2022-12-31T08:00:23.268Z,1999.90
2022-12-31T08:03:17.448Z,1999.90
2022-12-31T08:05:54.225Z,1999.90
2022-12-31T08:08:34.383Z,1999.90
2022-12-31T08:11:13.912Z,1999.90
2022-12-31T08:13:44.980Z,1999.90
2022-12-31T08:16:14.781Z,1999.90
2022-12-31T08:18:43.329Z,1999.90
2022-12-31T08:21:32.770Z,1999.90
2022-12-31T08:24:15.315Z,1999.90
2022-12-31T08:26:54.163Z,1999.90
2022-12-31T08:29:35.692Z,1999.90
2022-12-31T08:32:13.718Z,1999.90
2022-12-31T08:34:53.788Z,1999.90
2022-12-31T08:37:33.388Z,1999.90
2022-12-31T08:40:15.347Z,1999.90
2022-12-31T08:42:52.995Z,1999.90
2022-12-31T08:45:28.472Z,1999.90
2022-12-31T08:48:04.783Z,1999.90
2022-12-31T08:50:35.059Z,1999.90
2022-12-31T08:55:36.875Z,14.13
2022-12-31T08:58:17.101Z,1501.97
2022-12-31T09:03:37.680Z,16.13
2022-12-31T09:06:16.030Z,1999.90
2022-12-31T09:08:52.806Z,592.03
2022-12-31T09:11:26.361Z,114.55
2022-12-31T09:14:22.794Z,1999.90
2022-12-31T09:17:02.250Z,1999.90
2022-12-31T09:19:32.445Z,1999.90
2022-12-31T09:24:30.903Z,53.10
2022-12-31T09:27:07.450Z,1999.90
2022-12-31T09:29:52.015Z,1999.90
2022-12-31T09:32:27.331Z,1999.90
2022-12-31T09:34:59.265Z,1999.90
2022-12-31T09:37:39.763Z,1999.90
2022-12-31T09:40:31.269Z,263.65
2022-12-31T09:43:18.255Z,1999.90
2022-12-31T09:46:11.835Z,1999.90
2022-12-31T09:49:10.339Z,1999.90
2022-12-31T09:51:46.477Z,1999.90
2022-12-31T09:54:29.407Z,1999.90
2022-12-31T09:57:22.928Z,1999.90
2022-12-31T09:59:59.268Z,1999.90
2022-12-31T10:02:45.529Z,1999.90
2022-12-31T10:05:37.762Z,1999.90
2022-12-31T10:08:14.533Z,1999.90
2022-12-31T10:10:51.367Z,1999.90
2022-12-31T10:13:37.639Z,1999.90
2022-12-31T10:16:41.602Z,1999.90
2022-12-31T10:19:37.492Z,1999.90
2022-12-31T10:22:25.629Z,1999.90
2022-12-31T10:25:15.893Z,1999.90
2022-12-31T10:27:52.920Z,39.45
2022-12-31T10:30:26.774Z,1999.90
2022-12-31T10:33:08.053Z,26.10
2022-12-31T10:35:43.943Z,15.68
2022-12-31T10:38:24.942Z,1999.90
2022-12-31T10:41:28.172Z,1999.90
2022-12-31T10:44:37.971Z,1999.90
2022-12-31T10:47:35.753Z,1999.90
2022-12-31T10:50:39.751Z,1999.90
2022-12-31T10:53:48.239Z,1999.90
2022-12-31T10:56:54.454Z,1999.90
2022-12-31T10:59:55.380Z,1999.90
2022-12-31T11:02:58.474Z,1999.90
2022-12-31T11:05:54.638Z,1999.90
2022-12-31T11:08:46.180Z,1999.90
2022-12-31T11:11:32.190Z,1999.90
2022-12-31T11:14:48.804Z,212.05
2022-12-31T11:17:35.804Z,254.68
2022-12-31T11:20:44.264Z,307.13
2022-12-31T11:23:28.636Z,96.85
2022-12-31T11:26:08.104Z,6.07
2022-12-31T11:28:50.846Z,54.35
2022-12-31T11:31:34.038Z,25.23
2022-12-31T11:34:23.437Z,13.93
2022-12-31T11:37:12.331Z,11.63
2022-12-31T11:39:51.268Z,9.05
2022-12-31T11:42:33.614Z,11.82
2022-12-31T11:45:16.553Z,11.95
2022-12-31T11:50:58.108Z,33.42
2022-12-31T11:53:41.425Z,17.92
2022-12-31T11:56:19.898Z,16.45
2022-12-31T11:58:50.560Z,12.07
2022-12-31T12:01:23.529Z,10.35
2022-12-31T12:03:52.067Z,9.60
2022-12-31T12:06:28.695Z,11.63
2022-12-31T12:09:02.837Z,9.60
2022-12-31T12:11:36.116Z,1999.90
2022-12-31T12:14:23.167Z,166.35
2022-12-31T12:17:00.824Z,140.20
2022-12-31T12:19:34.999Z,129.23
2022-12-31T12:22:12.252Z,115.90
2022-12-31T12:24:54.414Z,100.00
2022-12-31T12:27:29.507Z,90.22
2022-12-31T12:29:57.742Z,87.45
2022-12-31T12:32:27.976Z,86.15
2022-12-31T12:34:56.350Z,74.97
2022-12-31T12:37:33.105Z,71.82
2022-12-31T12:40:10.243Z,66.38
2022-12-31T12:42:52.056Z,63.13
2022-12-31T12:45:22.333Z,62.03
2022-12-31T12:47:55.991Z,58.75
2022-12-31T12:50:27.883Z,59.33
2022-12-31T12:53:26.204Z,55.88
2022-12-31T12:56:10.528Z,53.00
2022-12-31T12:58:52.376Z,51.65
2022-12-31T13:01:35.222Z,49.38
2022-12-31T13:04:35.791Z,50.47
2022-12-31T13:07:16.210Z,49.28
2022-12-31T13:12:56.799Z,1999.90
2022-12-31T13:15:30.849Z,1999.90
2022-12-31T13:18:13.510Z,1999.90
2022-12-31T13:20:49.137Z,1999.90
2022-12-31T13:23:23.873Z,1999.90
2022-12-31T13:26:04.817Z,1999.90
2022-12-31T13:28:39.112Z,1999.90
2022-12-31T13:31:13.667Z,1999.90
2022-12-31T13:33:46.063Z,1999.90
2022-12-31T13:36:18.345Z,1999.90
2022-12-31T13:38:49.890Z,1999.90
2022-12-31T13:41:22.800Z,1999.90
2022-12-31T13:43:58.203Z,1999.90
2022-12-31T13:46:35.302Z,1999.90
2022-12-31T13:49:06.769Z,1999.90
2022-12-31T13:51:43.069Z,1999.90
2022-12-31T13:54:22.572Z,1999.90
2022-12-31T13:56:53.053Z,1999.90
2022-12-31T13:59:28.471Z,1999.90
2022-12-31T14:02:10.122Z,1999.90
2022-12-31T14:04:43.585Z,1999.90
2022-12-31T14:07:17.809Z,1999.90
2022-12-31T14:09:46.661Z,1999.90
2022-12-31T14:12:31.476Z,1999.90
2022-12-31T14:15:15.384Z,1999.90
2022-12-31T14:17:49.315Z,1999.90
2022-12-31T14:20:25.416Z,1999.90
2022-12-31T14:23:08.537Z,1999.90
2022-12-31T14:25:39.939Z,1999.90
2022-12-31T14:28:16.238Z,1999.90
2022-12-31T14:30:50.680Z,1999.90
2022-12-31T14:33:44.855Z,1999.90
2022-12-31T14:36:27.783Z,1999.90
2022-12-31T14:39:07.440Z,1999.90
2022-12-31T14:42:04.421Z,1999.90
2022-12-31T14:44:52.051Z,1999.90
2022-12-31T14:47:38.012Z,1999.90
2022-12-31T14:50:11.797Z,1999.90
2022-12-31T14:52:51.222Z,1999.90
2022-12-31T14:55:30.494Z,1999.90
2022-12-31T15:01:00.872Z,1999.90
2022-12-31T15:03:46.318Z,1999.90
2022-12-31T15:06:35.571Z,1999.90
2022-12-31T15:09:24.314Z,1999.90
2022-12-31T15:12:19.081Z,1999.90
2022-12-31T15:15:09.864Z,1999.90
2022-12-31T15:17:50.045Z,1999.90
2022-12-31T15:23:04.977Z,1999.90
2022-12-31T15:25:40.451Z,1999.90
2022-12-31T15:28:38.053Z,1999.90
2022-12-31T15:31:19.289Z,1999.90
2022-12-31T15:34:00.302Z,1999.90
2022-12-31T15:36:31.844Z,1999.90
2022-12-31T15:39:42.143Z,1999.90
2022-12-31T15:45:12.995Z,1999.90
2022-12-31T15:47:48.119Z,1999.90
2022-12-31T15:50:20.522Z,1999.90
2022-12-31T15:52:54.304Z,1999.90
2022-12-31T15:55:30.496Z,1999.90
2022-12-31T15:58:03.654Z,1999.90
2022-12-31T16:00:50.318Z,1999.90
2022-12-31T16:03:25.690Z,1999.90
2022-12-31T16:05:59.483Z,1535.90
2022-12-31T16:08:32.635Z,1999.90
2022-12-31T16:11:01.638Z,1999.90
2022-12-31T16:13:31.189Z,1999.90
2022-12-31T16:16:04.871Z,1999.90
2022-12-31T16:18:42.629Z,1999.90
2022-12-31T16:21:25.902Z,1999.90
2022-12-31T16:24:02.679Z,1999.90
2022-12-31T16:26:38.477Z,1999.90
2022-12-31T16:29:15.888Z,1999.90
2022-12-31T16:31:44.825Z,1999.90
2022-12-31T16:34:16.389Z,1999.90
2022-12-31T16:36:56.240Z,1999.90
2022-12-31T16:39:32.214Z,1999.90
2022-12-31T16:42:22.716Z,1999.90
2022-12-31T16:44:52.717Z,1999.90
2022-12-31T16:47:24.713Z,1999.90
2022-12-31T16:50:02.062Z,1999.90
2022-12-31T16:52:33.996Z,1999.90
2022-12-31T16:55:12.224Z,1999.90
2022-12-31T16:57:47.037Z,1999.90
2022-12-31T17:00:19.239Z,1999.90
2022-12-31T17:02:59.796Z,1999.90
2022-12-31T17:05:35.554Z,1999.90
2022-12-31T17:08:24.322Z,1999.90
2022-12-31T17:10:54.223Z,277.00
2022-12-31T17:13:27.707Z,1999.90
2022-12-31T17:15:59.657Z,1999.90
2022-12-31T17:18:31.793Z,1999.90
2022-12-31T17:21:12.279Z,1999.90
2022-12-31T17:23:42.914Z,1999.90
2022-12-31T17:26:14.847Z,1999.90
2022-12-31T17:28:46.105Z,1999.90
2022-12-31T17:31:32.533Z,1999.90
2022-12-31T17:34:22.752Z,1999.90
2022-12-31T17:39:25.843Z,1999.90
2022-12-31T17:44:29.470Z,1999.90
2022-12-31T17:46:58.019Z,1999.90
2022-12-31T17:49:32.181Z,1999.90
2022-12-31T17:52:00.539Z,1999.90
2022-12-31T17:54:28.734Z,1999.90
2022-12-31T17:57:03.543Z,1999.90
2022-12-31T17:59:37.607Z,1999.90
2022-12-31T18:02:13.128Z,1999.90
2022-12-31T18:04:41.842Z,1999.90
2022-12-31T18:07:10.183Z,1999.90
2022-12-31T18:09:38.427Z,1999.90
2022-12-31T18:12:09.740Z,1999.90
2022-12-31T18:14:37.883Z,1999.90
2022-12-31T18:17:18.045Z,1999.90
2022-12-31T18:22:33.658Z,1999.90
2022-12-31T18:25:01.860Z,721.90
2022-12-31T18:27:32.443Z,956.35
2022-12-31T18:30:04.542Z,1999.90
2022-12-31T18:32:34.304Z,733.83
2022-12-31T18:35:04.286Z,874.72
2022-12-31T18:37:34.768Z,180.85
2022-12-31T18:40:03.152Z,397.67
2022-12-31T18:42:35.732Z,351.25
2022-12-31T18:45:04.823Z,332.20
2022-12-31T18:47:37.649Z,1075.68
2022-12-31T18:50:07.538Z,571.63
2022-12-31T18:52:36.212Z,551.90
2022-12-31T18:55:25.444Z,775.85
2022-12-31T18:57:55.536Z,1999.90
2022-12-31T19:00:23.957Z,1999.90
2022-12-31T19:02:52.380Z,1999.90
2022-12-31T19:05:26.086Z,1999.90
2022-12-31T19:07:54.462Z,1999.90
2022-12-31T19:10:22.974Z,1999.90
2022-12-31T19:12:51.524Z,1999.90
2022-12-31T19:15:31.125Z,1999.90
2022-12-31T19:17:59.662Z,1999.90
2022-12-31T19:20:28.082Z,1999.90
2022-12-31T19:22:57.125Z,75.78
2022-12-31T19:25:27.828Z,1999.90
2022-12-31T19:27:56.087Z,1612.00
2022-12-31T19:30:28.682Z,1999.90
2022-12-31T19:32:57.045Z,1999.90
2022-12-31T19:35:25.941Z,1999.90
2022-12-31T19:37:55.758Z,1999.90
2022-12-31T19:40:27.087Z,1999.90
2022-12-31T19:42:56.515Z,1999.90
2022-12-31T19:45:27.327Z,1999.90
2022-12-31T19:47:58.153Z,1999.90
2022-12-31T19:50:31.861Z,1999.90
2022-12-31T19:53:00.650Z,1999.90
2022-12-31T19:55:28.767Z,1999.90
2022-12-31T19:57:56.966Z,1999.90
2022-12-31T20:00:25.063Z,1999.90
2022-12-31T20:02:56.674Z,1999.90
2022-12-31T20:05:25.713Z,1999.90
2022-12-31T20:07:54.061Z,1999.90
2022-12-31T20:10:22.265Z,1999.90
2022-12-31T20:12:50.427Z,1999.90
2022-12-31T20:15:20.990Z,1999.90
2022-12-31T20:17:52.063Z,1999.90
2022-12-31T20:20:21.758Z,1999.90
2022-12-31T20:22:51.545Z,1999.90
2022-12-31T20:25:20.011Z,1999.90
2022-12-31T20:27:48.296Z,1999.90
2022-12-31T20:30:20.023Z,1999.90
2022-12-31T20:32:48.428Z,1999.90
2022-12-31T20:35:18.452Z,1999.90
2022-12-31T20:37:48.053Z,1999.90
2022-12-31T20:40:16.407Z,1999.90
2022-12-31T20:42:46.550Z,1999.90
2022-12-31T20:47:43.389Z,1999.90
2022-12-31T20:50:12.677Z,1999.90
2022-12-31T20:52:41.614Z,1999.90
2022-12-31T20:55:19.327Z,1999.90
2022-12-31T20:57:47.756Z,1999.90
2022-12-31T21:00:19.490Z,350.90
2022-12-31T21:02:57.586Z,52.92
2022-12-31T21:05:32.654Z,81.82
2022-12-31T21:08:00.854Z,60.58
2022-12-31T21:10:30.809Z,55.33
2022-12-31T21:12:57.793Z,66.70
2022-12-31T21:15:26.278Z,72.00
2022-12-31T21:17:57.134Z,74.47
2022-12-31T21:20:26.449Z,85.13
2022-12-31T21:22:55.075Z,77.25
2022-12-31T21:25:23.363Z,65.53
2022-12-31T21:27:59.377Z,55.38
2022-12-31T21:30:27.464Z,52.17
2022-12-31T21:32:56.026Z,56.72
2022-12-31T21:35:42.696Z,50.83
2022-12-31T21:38:12.787Z,55.47
2022-12-31T21:40:44.862Z,56.08
2022-12-31T21:43:15.794Z,67.45
2022-12-31T21:45:44.692Z,66.78
2022-12-31T21:48:25.127Z,64.60
2022-12-31T21:50:54.987Z,67.35
2022-12-31T21:53:30.444Z,72.13
2022-12-31T21:56:09.888Z,53.50
2022-12-31T21:58:44.476Z,66.97
2022-12-31T22:01:35.313Z,59.65
2022-12-31T22:04:04.272Z,60.50
2022-12-31T22:06:36.974Z,55.22
2022-12-31T22:09:07.961Z,58.22
2022-12-31T22:11:37.326Z,60.75
2022-12-31T22:14:08.261Z,63.63
2022-12-31T22:16:37.635Z,55.45
2022-12-31T22:19:06.388Z,59.22
2022-12-31T22:21:34.601Z,79.70
2022-12-31T22:24:03.826Z,84.78
2022-12-31T22:26:32.373Z,64.60
2022-12-31T22:29:01.228Z,43.38
2022-12-31T22:31:31.737Z,52.53
2022-12-31T22:34:02.052Z,52.95
2022-12-31T22:36:30.296Z,70.72
2022-12-31T22:38:59.237Z,71.65
2022-12-31T22:41:29.555Z,52.92
2022-12-31T22:44:03.975Z,47.65
2022-12-31T22:46:42.347Z,46.35
2022-12-31T22:49:11.792Z,46.60
2022-12-31T22:51:57.670Z,46.03
2022-12-31T22:54:26.997Z,45.42
2022-12-31T22:56:55.804Z,42.53
2022-12-31T22:59:25.311Z,36.75
2022-12-31T23:01:57.728Z,42.20
2022-12-31T23:04:27.505Z,40.15
2022-12-31T23:06:56.962Z,41.03
2022-12-31T23:09:43.118Z,47.20
2022-12-31T23:12:12.096Z,42.00
2022-12-31T23:14:57.436Z,37.22
2022-12-31T23:17:46.353Z,37.08
2022-12-31T23:20:34.681Z,44.72
2022-12-31T23:23:12.918Z,43.33
2022-12-31T23:25:43.841Z,38.80
2022-12-31T23:28:13.978Z,37.20
2022-12-31T23:30:43.458Z,40.50
2022-12-31T23:33:15.645Z,37.38
2022-12-31T23:35:44.542Z,38.25
2022-12-31T23:38:13.459Z,53.72
2022-12-31T23:40:42.718Z,29.08
2022-12-31T23:43:19.801Z,28.00
2022-12-31T23:45:51.069Z,26.42
2022-12-31T23:48:23.997Z,32.15
2022-12-31T23:50:54.391Z,25.95
2022-12-31T23:53:23.415Z,23.27
2022-12-31T23:55:52.167Z,27.92
2022-12-31T23:58:21.291Z,22.52
